sensor_id;sensor_type;location;lat;lon;timestamp;P1;durP1;ratioP1;P2;durP2;ratioP2
39930;SDS011;26635;-35.248;149.138;2023-03-19T00:02:11;1.77;;;0.85;;
39930;SDS011;26635;-35.248;149.138;2023-03-19T00:04:47;3.47;;;0.80;;
39930;SDS011;26635;-35.248;149.138;2023-03-19T00:07:17;1.70;;;0.50;;
39930;SDS011;26635;-35.248;149.138;2023-03-19T00:09:47;1.52;;;0.50;;
39930;SDS011;26635;-35.248;149.138;2023-03-19T00:12:18;2.13;;;0.82;;
39930;SDS011;26635;-35.248;149.138;2023-03-19T00:14:48;2.97;;;0.80;;
39930;SDS011;26635;-35.248;149.138;2023-03-19T00:17:19;1.45;;;0.50;;
39930;SDS011;26635;-35.248;149.138;2023-03-19T00:19:50;1.75;;;0.30;;
39930;SDS011;26635;-35.248;149.138;2023-03-19T00:22:21;0.88;;;0.35;;
39930;SDS011;26635;-35.248;149.138;2023-03-19T00:24:51;3.83;;;0.95;;
39930;SDS011;26635;-35.248;149.138;2023-03-19T00:27:22;1.20;;;0.30;;
39930;SDS011;26635;-35.248;149.138;2023-03-19T00:29:54;2.08;;;0.40;;
39930;SDS011;26635;-35.248;149.138;2023-03-19T00:32:27;2.25;;;0.40;;
39930;SDS011;26635;-35.248;149.138;2023-03-19T00:34:57;2.30;;;0.32;;
39930;SDS011;26635;-35.248;149.138;2023-03-19T00:37:28;0.90;;;0.38;;
39930;SDS011;26635;-35.248;149.138;2023-03-19T00:39:58;1.98;;;0.32;;
39930;SDS011;26635;-35.248;149.138;2023-03-19T00:42:29;2.45;;;0.90;;
39930;SDS011;26635;-35.248;149.138;2023-03-19T00:44:59;3.63;;;0.55;;
39930;SDS011;26635;-35.248;149.138;2023-03-19T00:47:30;1.85;;;0.40;;
39930;SDS011;26635;-35.248;149.138;2023-03-19T00:50:00;1.13;;;0.40;;
39930;SDS011;26635;-35.248;149.138;2023-03-19T00:52:32;1.88;;;0.30;;
39930;SDS011;26635;-35.248;149.138;2023-03-19T00:55:02;2.72;;;0.50;;
39930;SDS011;26635;-35.248;149.138;2023-03-19T00:57:33;2.42;;;0.40;;
39930;SDS011;26635;-35.248;149.138;2023-03-19T01:00:03;3.05;;;0.47;;
39930;SDS011;26635;-35.248;149.138;2023-03-19T01:02:35;1.02;;;0.43;;
39930;SDS011;26635;-35.248;149.138;2023-03-19T01:05:06;2.20;;;0.77;;
39930;SDS011;26635;-35.248;149.138;2023-03-19T01:07:37;2.17;;;0.77;;
39930;SDS011;26635;-35.248;149.138;2023-03-19T01:10:09;5.03;;;1.17;;
39930;SDS011;26635;-35.248;149.138;2023-03-19T01:12:40;0.77;;;0.50;;
39930;SDS011;26635;-35.248;149.138;2023-03-19T01:15:11;1.42;;;0.50;;
39930;SDS011;26635;-35.248;149.138;2023-03-19T01:17:41;1.27;;;0.30;;
39930;SDS011;26635;-35.248;149.138;2023-03-19T01:20:12;1.92;;;0.40;;
39930;SDS011;26635;-35.248;149.138;2023-03-19T01:22:46;2.38;;;0.50;;
39930;SDS011;26635;-35.248;149.138;2023-03-19T01:25:16;1.23;;;0.60;;
39930;SDS011;26635;-35.248;149.138;2023-03-19T01:27:46;2.35;;;0.50;;
39930;SDS011;26635;-35.248;149.138;2023-03-19T01:30:17;1.33;;;0.50;;
39930;SDS011;26635;-35.248;149.138;2023-03-19T01:32:48;1.65;;;0.43;;
39930;SDS011;26635;-35.248;149.138;2023-03-19T01:35:20;1.70;;;1.23;;
39930;SDS011;26635;-35.248;149.138;2023-03-19T01:37:53;0.55;;;0.30;;
39930;SDS011;26635;-35.248;149.138;2023-03-19T01:40:24;2.70;;;0.85;;
39930;SDS011;26635;-35.248;149.138;2023-03-19T01:45:42;1.85;;;0.50;;
39930;SDS011;26635;-35.248;149.138;2023-03-19T01:50:57;0.55;;;0.50;;
39930;SDS011;26635;-35.248;149.138;2023-03-19T01:53:30;1.77;;;0.50;;
39930;SDS011;26635;-35.248;149.138;2023-03-19T01:56:26;1.40;;;0.70;;
39930;SDS011;26635;-35.248;149.138;2023-03-19T01:59:03;1.73;;;0.50;;
39930;SDS011;26635;-35.248;149.138;2023-03-19T02:01:45;1.50;;;0.77;;
39930;SDS011;26635;-35.248;149.138;2023-03-19T02:04:39;0.85;;;0.40;;
39930;SDS011;26635;-35.248;149.138;2023-03-19T02:07:11;0.90;;;0.30;;
39930;SDS011;26635;-35.248;149.138;2023-03-19T02:09:44;1.55;;;0.60;;
39930;SDS011;26635;-35.248;149.138;2023-03-19T02:12:15;1.20;;;0.50;;
39930;SDS011;26635;-35.248;149.138;2023-03-19T02:14:46;2.13;;;0.70;;
39930;SDS011;26635;-35.248;149.138;2023-03-19T02:17:18;1.20;;;0.55;;
39930;SDS011;26635;-35.248;149.138;2023-03-19T02:19:59;2.63;;;0.50;;
39930;SDS011;26635;-35.248;149.138;2023-03-19T02:23:04;1.40;;;0.47;;
39930;SDS011;26635;-35.248;149.138;2023-03-19T02:28:16;1.17;;;0.55;;
39930;SDS011;26635;-35.248;149.138;2023-03-19T02:30:50;2.00;;;0.60;;
39930;SDS011;26635;-35.248;149.138;2023-03-19T02:33:21;2.55;;;0.70;;
39930;SDS011;26635;-35.248;149.138;2023-03-19T02:35:51;2.28;;;0.65;;
39930;SDS011;26635;-35.248;149.138;2023-03-19T02:38:24;1.25;;;0.47;;
39930;SDS011;26635;-35.248;149.138;2023-03-19T02:41:03;2.08;;;0.50;;
39930;SDS011;26635;-35.248;149.138;2023-03-19T02:43:38;1.00;;;0.35;;
39930;SDS011;26635;-35.248;149.138;2023-03-19T02:46:11;2.05;;;0.60;;
39930;SDS011;26635;-35.248;149.138;2023-03-19T02:48:43;2.45;;;0.57;;
39930;SDS011;26635;-35.248;149.138;2023-03-19T02:51:14;1.50;;;0.93;;
39930;SDS011;26635;-35.248;149.138;2023-03-19T02:53:45;1.52;;;0.50;;
39930;SDS011;26635;-35.248;149.138;2023-03-19T02:56:16;0.82;;;0.35;;
39930;SDS011;26635;-35.248;149.138;2023-03-19T02:58:47;2.83;;;0.43;;
39930;SDS011;26635;-35.248;149.138;2023-03-19T03:01:17;2.05;;;0.50;;
39930;SDS011;26635;-35.248;149.138;2023-03-19T03:03:48;2.15;;;0.32;;
39930;SDS011;26635;-35.248;149.138;2023-03-19T03:06:19;3.70;;;0.70;;
39930;SDS011;26635;-35.248;149.138;2023-03-19T03:08:49;1.52;;;0.50;;
39930;SDS011;26635;-35.248;149.138;2023-03-19T03:11:21;1.80;;;0.40;;
39930;SDS011;26635;-35.248;149.138;2023-03-19T03:13:51;2.58;;;0.40;;
39930;SDS011;26635;-35.248;149.138;2023-03-19T03:16:22;2.83;;;0.50;;
39930;SDS011;26635;-35.248;149.138;2023-03-19T03:18:53;0.80;;;0.55;;
39930;SDS011;26635;-35.248;149.138;2023-03-19T03:21:25;2.90;;;1.05;;
39930;SDS011;26635;-35.248;149.138;2023-03-19T03:24:00;5.43;;;0.80;;
39930;SDS011;26635;-35.248;149.138;2023-03-19T03:26:31;2.50;;;1.38;;
39930;SDS011;26635;-35.248;149.138;2023-03-19T03:29:04;1.48;;;0.40;;
39930;SDS011;26635;-35.248;149.138;2023-03-19T03:31:35;4.38;;;0.95;;
39930;SDS011;26635;-35.248;149.138;2023-03-19T03:34:06;2.15;;;0.40;;
39930;SDS011;26635;-35.248;149.138;2023-03-19T03:36:37;2.10;;;0.45;;
39930;SDS011;26635;-35.248;149.138;2023-03-19T03:39:08;1.52;;;0.50;;
39930;SDS011;26635;-35.248;149.138;2023-03-19T03:41:39;2.58;;;0.63;;
39930;SDS011;26635;-35.248;149.138;2023-03-19T03:44:10;3.35;;;0.35;;
39930;SDS011;26635;-35.248;149.138;2023-03-19T03:46:54;1.60;;;0.50;;
39930;SDS011;26635;-35.248;149.138;2023-03-19T03:49:25;1.73;;;0.68;;
39930;SDS011;26635;-35.248;149.138;2023-03-19T03:51:56;1.55;;;0.25;;
39930;SDS011;26635;-35.248;149.138;2023-03-19T03:54:26;0.70;;;0.40;;
39930;SDS011;26635;-35.248;149.138;2023-03-19T03:56:56;1.48;;;0.50;;
39930;SDS011;26635;-35.248;149.138;2023-03-19T03:59:29;1.40;;;0.40;;
39930;SDS011;26635;-35.248;149.138;2023-03-19T04:01:59;4.93;;;1.00;;
39930;SDS011;26635;-35.248;149.138;2023-03-19T04:04:30;3.08;;;0.98;;
39930;SDS011;26635;-35.248;149.138;2023-03-19T04:07:02;3.28;;;0.40;;
39930;SDS011;26635;-35.248;149.138;2023-03-19T04:09:34;0.70;;;0.30;;
39930;SDS011;26635;-35.248;149.138;2023-03-19T04:12:24;1.20;;;0.20;;
39930;SDS011;26635;-35.248;149.138;2023-03-19T04:14:54;2.08;;;0.30;;
39930;SDS011;26635;-35.248;149.138;2023-03-19T04:17:25;1.73;;;0.68;;
39930;SDS011;26635;-35.248;149.138;2023-03-19T04:19:57;0.90;;;0.30;;
39930;SDS011;26635;-35.248;149.138;2023-03-19T04:22:27;1.23;;;0.63;;
39930;SDS011;26635;-35.248;149.138;2023-03-19T04:24:57;0.30;;;0.20;;
39930;SDS011;26635;-35.248;149.138;2023-03-19T04:27:28;0.80;;;0.20;;
39930;SDS011;26635;-35.248;149.138;2023-03-19T04:30:00;0.65;;;0.30;;
39930;SDS011;26635;-35.248;149.138;2023-03-19T04:32:32;1.45;;;0.40;;
39930;SDS011;26635;-35.248;149.138;2023-03-19T04:35:03;1.30;;;0.30;;
39930;SDS011;26635;-35.248;149.138;2023-03-19T04:37:35;1.05;;;0.40;;
39930;SDS011;26635;-35.248;149.138;2023-03-19T04:40:06;0.50;;;0.30;;
39930;SDS011;26635;-35.248;149.138;2023-03-19T04:42:38;1.35;;;0.57;;
39930;SDS011;26635;-35.248;149.138;2023-03-19T04:45:09;1.67;;;0.30;;
39930;SDS011;26635;-35.248;149.138;2023-03-19T04:47:41;2.38;;;0.32;;
39930;SDS011;26635;-35.248;149.138;2023-03-19T04:50:11;3.60;;;0.50;;
39930;SDS011;26635;-35.248;149.138;2023-03-19T04:52:42;1.02;;;0.20;;
39930;SDS011;26635;-35.248;149.138;2023-03-19T04:55:12;1.20;;;0.35;;
39930;SDS011;26635;-35.248;149.138;2023-03-19T04:57:43;4.68;;;0.50;;
39930;SDS011;26635;-35.248;149.138;2023-03-19T05:00:13;3.72;;;0.30;;
39930;SDS011;26635;-35.248;149.138;2023-03-19T05:02:46;2.22;;;0.40;;
39930;SDS011;26635;-35.248;149.138;2023-03-19T05:05:16;1.20;;;0.30;;
39930;SDS011;26635;-35.248;149.138;2023-03-19T05:07:47;3.08;;;0.40;;
39930;SDS011;26635;-35.248;149.138;2023-03-19T05:10:17;1.25;;;0.30;;
39930;SDS011;26635;-35.248;149.138;2023-03-19T05:12:49;1.98;;;0.40;;
39930;SDS011;26635;-35.248;149.138;2023-03-19T05:15:19;1.42;;;0.20;;
39930;SDS011;26635;-35.248;149.138;2023-03-19T05:17:50;1.15;;;0.30;;
39930;SDS011;26635;-35.248;149.138;2023-03-19T05:20:21;1.70;;;0.40;;
39930;SDS011;26635;-35.248;149.138;2023-03-19T05:22:52;1.80;;;0.25;;
39930;SDS011;26635;-35.248;149.138;2023-03-19T05:25:22;1.23;;;0.30;;
39930;SDS011;26635;-35.248;149.138;2023-03-19T05:27:53;1.15;;;0.22;;
39930;SDS011;26635;-35.248;149.138;2023-03-19T05:30:24;0.60;;;0.22;;
39930;SDS011;26635;-35.248;149.138;2023-03-19T05:32:56;0.55;;;0.32;;
39930;SDS011;26635;-35.248;149.138;2023-03-19T05:35:29;1.73;;;0.20;;
39930;SDS011;26635;-35.248;149.138;2023-03-19T05:37:59;0.57;;;0.30;;
39930;SDS011;26635;-35.248;149.138;2023-03-19T05:40:30;0.77;;;0.40;;
39930;SDS011;26635;-35.248;149.138;2023-03-19T05:43:02;0.70;;;0.30;;
39930;SDS011;26635;-35.248;149.138;2023-03-19T05:45:33;1.10;;;0.40;;
39930;SDS011;26635;-35.248;149.138;2023-03-19T05:48:03;2.10;;;0.20;;
39930;SDS011;26635;-35.248;149.138;2023-03-19T05:50:35;1.50;;;0.30;;
39930;SDS011;26635;-35.248;149.138;2023-03-19T05:53:06;1.20;;;0.40;;
39930;SDS011;26635;-35.248;149.138;2023-03-19T05:55:36;1.17;;;0.30;;
39930;SDS011;26635;-35.248;149.138;2023-03-19T05:58:06;1.30;;;0.20;;
39930;SDS011;26635;-35.248;149.138;2023-03-19T06:00:37;1.63;;;0.32;;
39930;SDS011;26635;-35.248;149.138;2023-03-19T06:03:07;3.28;;;0.65;;
39930;SDS011;26635;-35.248;149.138;2023-03-19T06:05:37;1.23;;;0.28;;
39930;SDS011;26635;-35.248;149.138;2023-03-19T06:08:09;1.27;;;0.30;;
39930;SDS011;26635;-35.248;149.138;2023-03-19T06:10:40;2.78;;;0.30;;
39930;SDS011;26635;-35.248;149.138;2023-03-19T06:13:11;2.22;;;0.63;;
39930;SDS011;26635;-35.248;149.138;2023-03-19T06:15:42;1.27;;;0.73;;
39930;SDS011;26635;-35.248;149.138;2023-03-19T06:18:12;2.40;;;0.40;;
39930;SDS011;26635;-35.248;149.138;2023-03-19T06:20:45;1.67;;;0.30;;
39930;SDS011;26635;-35.248;149.138;2023-03-19T06:23:16;0.55;;;0.45;;
39930;SDS011;26635;-35.248;149.138;2023-03-19T06:25:47;0.93;;;0.20;;
39930;SDS011;26635;-35.248;149.138;2023-03-19T06:28:19;2.45;;;0.38;;
39930;SDS011;26635;-35.248;149.138;2023-03-19T06:30:54;0.95;;;0.52;;
39930;SDS011;26635;-35.248;149.138;2023-03-19T06:33:27;2.20;;;0.30;;
39930;SDS011;26635;-35.248;149.138;2023-03-19T06:36:00;0.55;;;0.20;;
39930;SDS011;26635;-35.248;149.138;2023-03-19T06:38:31;2.90;;;0.35;;
39930;SDS011;26635;-35.248;149.138;2023-03-19T06:41:03;5.53;;;1.20;;
39930;SDS011;26635;-35.248;149.138;2023-03-19T06:43:33;2.25;;;0.60;;
39930;SDS011;26635;-35.248;149.138;2023-03-19T06:46:05;0.90;;;0.30;;
39930;SDS011;26635;-35.248;149.138;2023-03-19T06:48:37;1.88;;;0.35;;
39930;SDS011;26635;-35.248;149.138;2023-03-19T06:51:09;1.25;;;0.30;;
39930;SDS011;26635;-35.248;149.138;2023-03-19T06:53:40;2.85;;;0.35;;
39930;SDS011;26635;-35.248;149.138;2023-03-19T06:56:10;1.13;;;0.40;;
39930;SDS011;26635;-35.248;149.138;2023-03-19T06:58:41;0.73;;;0.22;;
39930;SDS011;26635;-35.248;149.138;2023-03-19T07:01:11;0.88;;;0.40;;
39930;SDS011;26635;-35.248;149.138;2023-03-19T07:03:42;1.58;;;0.20;;
39930;SDS011;26635;-35.248;149.138;2023-03-19T07:06:12;1.70;;;1.10;;
39930;SDS011;26635;-35.248;149.138;2023-03-19T07:08:43;2.03;;;0.32;;
39930;SDS011;26635;-35.248;149.138;2023-03-19T07:11:14;2.33;;;0.68;;
39930;SDS011;26635;-35.248;149.138;2023-03-19T07:13:44;1.67;;;0.40;;
39930;SDS011;26635;-35.248;149.138;2023-03-19T07:16:14;1.88;;;0.45;;
39930;SDS011;26635;-35.248;149.138;2023-03-19T07:18:46;0.98;;;0.30;;
39930;SDS011;26635;-35.248;149.138;2023-03-19T07:21:16;5.15;;;0.60;;
39930;SDS011;26635;-35.248;149.138;2023-03-19T07:23:47;1.27;;;0.40;;
39930;SDS011;26635;-35.248;149.138;2023-03-19T07:26:20;2.13;;;0.40;;
39930;SDS011;26635;-35.248;149.138;2023-03-19T07:28:50;1.83;;;0.93;;
39930;SDS011;26635;-35.248;149.138;2023-03-19T07:31:21;2.15;;;0.35;;
39930;SDS011;26635;-35.248;149.138;2023-03-19T07:33:51;1.25;;;0.50;;
39930;SDS011;26635;-35.248;149.138;2023-03-19T07:36:22;3.63;;;0.30;;
39930;SDS011;26635;-35.248;149.138;2023-03-19T07:38:53;0.63;;;0.38;;
39930;SDS011;26635;-35.248;149.138;2023-03-19T07:41:24;0.57;;;0.32;;
39930;SDS011;26635;-35.248;149.138;2023-03-19T07:43:55;2.03;;;0.50;;
39930;SDS011;26635;-35.248;149.138;2023-03-19T07:46:25;2.05;;;0.63;;
39930;SDS011;26635;-35.248;149.138;2023-03-19T07:48:55;1.58;;;0.30;;
39930;SDS011;26635;-35.248;149.138;2023-03-19T07:51:26;3.15;;;0.70;;
39930;SDS011;26635;-35.248;149.138;2023-03-19T07:53:56;2.22;;;0.40;;
39930;SDS011;26635;-35.248;149.138;2023-03-19T07:56:26;3.50;;;0.40;;
39930;SDS011;26635;-35.248;149.138;2023-03-19T07:58:57;3.83;;;0.75;;
39930;SDS011;26635;-35.248;149.138;2023-03-19T08:01:28;0.85;;;0.30;;
39930;SDS011;26635;-35.248;149.138;2023-03-19T08:03:59;2.83;;;0.43;;
39930;SDS011;26635;-35.248;149.138;2023-03-19T08:06:29;2.67;;;0.40;;
39930;SDS011;26635;-35.248;149.138;2023-03-19T08:09:00;2.65;;;0.73;;
39930;SDS011;26635;-35.248;149.138;2023-03-19T08:11:31;2.03;;;0.60;;
39930;SDS011;26635;-35.248;149.138;2023-03-19T08:14:01;2.45;;;0.50;;
39930;SDS011;26635;-35.248;149.138;2023-03-19T08:16:32;4.80;;;1.13;;
39930;SDS011;26635;-35.248;149.138;2023-03-19T08:19:02;2.08;;;0.60;;
39930;SDS011;26635;-35.248;149.138;2023-03-19T08:21:33;1.00;;;0.43;;
39930;SDS011;26635;-35.248;149.138;2023-03-19T08:24:05;2.17;;;0.35;;
39930;SDS011;26635;-35.248;149.138;2023-03-19T08:26:36;1.52;;;0.60;;
39930;SDS011;26635;-35.248;149.138;2023-03-19T08:29:07;3.50;;;1.02;;
39930;SDS011;26635;-35.248;149.138;2023-03-19T08:31:39;6.13;;;1.20;;
39930;SDS011;26635;-35.248;149.138;2023-03-19T08:34:09;4.35;;;0.93;;
39930;SDS011;26635;-35.248;149.138;2023-03-19T08:36:40;3.08;;;0.75;;
39930;SDS011;26635;-35.248;149.138;2023-03-19T08:39:12;2.72;;;0.80;;
39930;SDS011;26635;-35.248;149.138;2023-03-19T08:41:45;3.40;;;1.55;;
39930;SDS011;26635;-35.248;149.138;2023-03-19T08:44:17;3.92;;;1.52;;
39930;SDS011;26635;-35.248;149.138;2023-03-19T08:46:47;3.50;;;1.40;;
39930;SDS011;26635;-35.248;149.138;2023-03-19T08:49:18;4.57;;;1.48;;
39930;SDS011;26635;-35.248;149.138;2023-03-19T08:51:49;5.05;;;1.83;;
39930;SDS011;26635;-35.248;149.138;2023-03-19T08:54:20;4.65;;;1.40;;
39930;SDS011;26635;-35.248;149.138;2023-03-19T08:56:50;3.55;;;0.88;;
39930;SDS011;26635;-35.248;149.138;2023-03-19T08:59:20;4.60;;;1.85;;
39930;SDS011;26635;-35.248;149.138;2023-03-19T09:01:51;2.80;;;1.30;;
39930;SDS011;26635;-35.248;149.138;2023-03-19T09:04:22;3.05;;;1.83;;
39930;SDS011;26635;-35.248;149.138;2023-03-19T09:06:52;6.57;;;2.10;;
39930;SDS011;26635;-35.248;149.138;2023-03-19T09:09:23;3.30;;;1.45;;
39930;SDS011;26635;-35.248;149.138;2023-03-19T09:11:54;7.40;;;1.92;;
39930;SDS011;26635;-35.248;149.138;2023-03-19T09:14:24;6.05;;;1.98;;
39930;SDS011;26635;-35.248;149.138;2023-03-19T09:16:55;2.30;;;0.98;;
39930;SDS011;26635;-35.248;149.138;2023-03-19T09:19:26;10.52;;;1.15;;
39930;SDS011;26635;-35.248;149.138;2023-03-19T09:21:56;1.88;;;0.90;;
39930;SDS011;26635;-35.248;149.138;2023-03-19T09:24:29;2.97;;;0.93;;
39930;SDS011;26635;-35.248;149.138;2023-03-19T09:26:59;5.20;;;1.42;;
39930;SDS011;26635;-35.248;149.138;2023-03-19T09:29:30;4.15;;;0.98;;
39930;SDS011;26635;-35.248;149.138;2023-03-19T09:32:00;3.45;;;1.33;;
39930;SDS011;26635;-35.248;149.138;2023-03-19T09:34:31;2.60;;;1.10;;
39930;SDS011;26635;-35.248;149.138;2023-03-19T09:37:01;3.90;;;1.20;;
39930;SDS011;26635;-35.248;149.138;2023-03-19T09:39:32;4.63;;;1.52;;
39930;SDS011;26635;-35.248;149.138;2023-03-19T09:45:21;1.83;;;0.93;;
39930;SDS011;26635;-35.248;149.138;2023-03-19T09:47:53;3.35;;;0.82;;
39930;SDS011;26635;-35.248;149.138;2023-03-19T09:56:06;2.80;;;1.02;;
39930;SDS011;26635;-35.248;149.138;2023-03-19T10:01:25;6.15;;;1.58;;
39930;SDS011;26635;-35.248;149.138;2023-03-19T10:06:41;3.92;;;1.83;;
39930;SDS011;26635;-35.248;149.138;2023-03-19T10:14:50;6.78;;;1.50;;
39930;SDS011;26635;-35.248;149.138;2023-03-19T10:17:30;4.78;;;1.85;;
39930;SDS011;26635;-35.248;149.138;2023-03-19T10:20:35;2.55;;;1.50;;
39930;SDS011;26635;-35.248;149.138;2023-03-19T10:26:15;3.15;;;1.85;;
39930;SDS011;26635;-35.248;149.138;2023-03-19T10:28:53;4.60;;;1.42;;
39930;SDS011;26635;-35.248;149.138;2023-03-19T10:31:39;4.78;;;1.70;;
39930;SDS011;26635;-35.248;149.138;2023-03-19T10:34:35;5.80;;;1.85;;
39930;SDS011;26635;-35.248;149.138;2023-03-19T10:37:13;4.80;;;1.92;;
39930;SDS011;26635;-35.248;149.138;2023-03-19T10:39:48;5.07;;;1.83;;
39930;SDS011;26635;-35.248;149.138;2023-03-19T10:45:35;4.30;;;1.42;;
39930;SDS011;26635;-35.248;149.138;2023-03-19T10:48:11;3.08;;;1.20;;
39930;SDS011;26635;-35.248;149.138;2023-03-19T10:50:47;2.85;;;1.30;;
39930;SDS011;26635;-35.248;149.138;2023-03-19T10:53:28;3.20;;;1.17;;
39930;SDS011;26635;-35.248;149.138;2023-03-19T10:56:19;5.75;;;2.05;;
39930;SDS011;26635;-35.248;149.138;2023-03-19T10:58:59;4.55;;;1.60;;
39930;SDS011;26635;-35.248;149.138;2023-03-19T11:01:32;4.45;;;1.77;;
39930;SDS011;26635;-35.248;149.138;2023-03-19T11:06:47;4.70;;;2.25;;
39930;SDS011;26635;-35.248;149.138;2023-03-19T11:09:27;3.10;;;1.70;;
39930;SDS011;26635;-35.248;149.138;2023-03-19T11:12:29;3.70;;;1.60;;
39930;SDS011;26635;-35.248;149.138;2023-03-19T11:15:04;4.70;;;1.80;;
39930;SDS011;26635;-35.248;149.138;2023-03-19T11:17:57;3.97;;;1.42;;
39930;SDS011;26635;-35.248;149.138;2023-03-19T11:20:35;4.05;;;1.80;;
39930;SDS011;26635;-35.248;149.138;2023-03-19T11:23:12;3.35;;;1.40;;
39930;SDS011;26635;-35.248;149.138;2023-03-19T11:25:51;3.90;;;1.45;;
39930;SDS011;26635;-35.248;149.138;2023-03-19T11:28:24;4.68;;;1.73;;
39930;SDS011;26635;-35.248;149.138;2023-03-19T11:36:44;5.13;;;1.77;;
39930;SDS011;26635;-35.248;149.138;2023-03-19T11:39:27;6.97;;;1.70;;
39930;SDS011;26635;-35.248;149.138;2023-03-19T11:42:40;2.92;;;1.50;;
39930;SDS011;26635;-35.248;149.138;2023-03-19T11:54:40;3.22;;;1.20;;
39930;SDS011;26635;-35.248;149.138;2023-03-19T12:05:55;4.40;;;1.40;;
39930;SDS011;26635;-35.248;149.138;2023-03-19T12:08:38;6.82;;;1.20;;
39930;SDS011;26635;-35.248;149.138;2023-03-19T12:14:48;4.15;;;1.45;;
39930;SDS011;26635;-35.248;149.138;2023-03-19T12:23:37;2.83;;;1.50;;
39930;SDS011;26635;-35.248;149.138;2023-03-19T12:33:05;4.45;;;1.90;;
39930;SDS011;26635;-35.248;149.138;2023-03-19T12:35:48;5.10;;;1.38;;
39930;SDS011;26635;-35.248;149.138;2023-03-19T12:38:42;4.45;;;1.83;;
39930;SDS011;26635;-35.248;149.138;2023-03-19T12:41:21;4.78;;;1.35;;
39930;SDS011;26635;-35.248;149.138;2023-03-19T12:46:33;4.28;;;1.67;;
39930;SDS011;26635;-35.248;149.138;2023-03-19T12:52:00;2.55;;;0.93;;
39930;SDS011;26635;-35.248;149.138;2023-03-19T12:55:15;4.32;;;1.48;;
39930;SDS011;26635;-35.248;149.138;2023-03-19T12:57:57;6.70;;;1.20;;
39930;SDS011;26635;-35.248;149.138;2023-03-19T13:03:40;3.38;;;1.17;;
39930;SDS011;26635;-35.248;149.138;2023-03-19T13:12:21;3.70;;;2.03;;
39930;SDS011;26635;-35.248;149.138;2023-03-19T13:20:56;6.05;;;1.35;;
39930;SDS011;26635;-35.248;149.138;2023-03-19T13:23:33;4.45;;;1.05;;
39930;SDS011;26635;-35.248;149.138;2023-03-19T13:26:07;4.35;;;1.42;;
39930;SDS011;26635;-35.248;149.138;2023-03-19T13:28:53;2.30;;;1.00;;
39930;SDS011;26635;-35.248;149.138;2023-03-19T13:31:32;5.50;;;1.15;;
39930;SDS011;26635;-35.248;149.138;2023-03-19T13:34:46;2.50;;;1.02;;
39930;SDS011;26635;-35.248;149.138;2023-03-19T13:37:11;2.72;;;1.00;;
39930;SDS011;26635;-35.248;149.138;2023-03-19T13:39:49;2.85;;;1.10;;
39930;SDS011;26635;-35.248;149.138;2023-03-19T13:42:37;2.33;;;1.13;;
39930;SDS011;26635;-35.248;149.138;2023-03-19T13:45:33;2.75;;;0.88;;
39930;SDS011;26635;-35.248;149.138;2023-03-19T13:56:09;3.28;;;1.20;;
39930;SDS011;26635;-35.248;149.138;2023-03-19T14:01:44;4.03;;;0.90;;
39930;SDS011;26635;-35.248;149.138;2023-03-19T14:04:33;3.50;;;1.42;;
39930;SDS011;26635;-35.248;149.138;2023-03-19T14:07:16;4.07;;;1.27;;
39930;SDS011;26635;-35.248;149.138;2023-03-19T14:12:40;2.45;;;0.90;;
39930;SDS011;26635;-35.248;149.138;2023-03-19T14:15:16;2.60;;;0.77;;
39930;SDS011;26635;-35.248;149.138;2023-03-19T14:20:26;2.60;;;1.20;;
39930;SDS011;26635;-35.248;149.138;2023-03-19T14:23:23;3.20;;;1.30;;
39930;SDS011;26635;-35.248;149.138;2023-03-19T14:26:22;2.45;;;0.88;;
39930;SDS011;26635;-35.248;149.138;2023-03-19T14:28:58;3.28;;;0.90;;
39930;SDS011;26635;-35.248;149.138;2023-03-19T14:34:36;3.53;;;1.10;;
39930;SDS011;26635;-35.248;149.138;2023-03-19T14:37:50;2.60;;;0.93;;
39930;SDS011;26635;-35.248;149.138;2023-03-19T14:40:36;4.10;;;1.15;;
39930;SDS011;26635;-35.248;149.138;2023-03-19T15:01:38;2.53;;;0.75;;
39930;SDS011;26635;-35.248;149.138;2023-03-19T15:04:31;3.05;;;0.75;;
39930;SDS011;26635;-35.248;149.138;2023-03-19T15:07:01;3.25;;;0.68;;
39930;SDS011;26635;-35.248;149.138;2023-03-19T15:18:57;2.03;;;0.90;;
39930;SDS011;26635;-35.248;149.138;2023-03-19T15:21:29;2.25;;;1.05;;
39930;SDS011;26635;-35.248;149.138;2023-03-19T15:24:00;2.55;;;0.82;;
39930;SDS011;26635;-35.248;149.138;2023-03-19T15:29:32;2.72;;;0.75;;
39930;SDS011;26635;-35.248;149.138;2023-03-19T15:32:04;1.45;;;0.57;;
39930;SDS011;26635;-35.248;149.138;2023-03-19T15:34:41;3.03;;;0.80;;
39930;SDS011;26635;-35.248;149.138;2023-03-19T15:37:24;1.65;;;0.60;;
39930;SDS011;26635;-35.248;149.138;2023-03-19T15:39:59;2.92;;;0.98;;
39930;SDS011;26635;-35.248;149.138;2023-03-19T15:42:32;2.15;;;0.60;;
39930;SDS011;26635;-35.248;149.138;2023-03-19T15:45:07;3.25;;;0.68;;
39930;SDS011;26635;-35.248;149.138;2023-03-19T15:47:40;2.47;;;0.60;;
39930;SDS011;26635;-35.248;149.138;2023-03-19T15:50:17;3.60;;;0.90;;
39930;SDS011;26635;-35.248;149.138;2023-03-19T15:52:56;2.15;;;0.93;;
39930;SDS011;26635;-35.248;149.138;2023-03-19T15:55:36;2.72;;;1.00;;
39930;SDS011;26635;-35.248;149.138;2023-03-19T15:58:08;4.28;;;0.80;;
39930;SDS011;26635;-35.248;149.138;2023-03-19T16:00:44;2.28;;;0.68;;
39930;SDS011;26635;-35.248;149.138;2023-03-19T16:03:16;4.13;;;0.80;;
39930;SDS011;26635;-35.248;149.138;2023-03-19T16:05:51;2.17;;;0.90;;
39930;SDS011;26635;-35.248;149.138;2023-03-19T16:08:32;1.73;;;0.85;;
39930;SDS011;26635;-35.248;149.138;2023-03-19T16:14:24;1.95;;;0.90;;
39930;SDS011;26635;-35.248;149.138;2023-03-19T16:17:01;3.55;;;1.17;;
39930;SDS011;26635;-35.248;149.138;2023-03-19T16:19:54;3.13;;;0.80;;
39930;SDS011;26635;-35.248;149.138;2023-03-19T16:22:30;1.67;;;0.82;;
39930;SDS011;26635;-35.248;149.138;2023-03-19T16:25:02;2.13;;;0.80;;
39930;SDS011;26635;-35.248;149.138;2023-03-19T16:27:39;1.38;;;0.63;;
39930;SDS011;26635;-35.248;149.138;2023-03-19T16:33:00;3.42;;;1.00;;
39930;SDS011;26635;-35.248;149.138;2023-03-19T16:35:32;2.47;;;1.20;;
39930;SDS011;26635;-35.248;149.138;2023-03-19T16:38:13;2.97;;;0.52;;
39930;SDS011;26635;-35.248;149.138;2023-03-19T16:43:52;1.27;;;0.70;;
39930;SDS011;26635;-35.248;149.138;2023-03-19T16:46:22;1.98;;;0.80;;
39930;SDS011;26635;-35.248;149.138;2023-03-19T16:48:54;2.60;;;0.85;;
39930;SDS011;26635;-35.248;149.138;2023-03-19T16:51:24;2.03;;;0.82;;
39930;SDS011;26635;-35.248;149.138;2023-03-19T16:53:55;3.13;;;0.80;;
39930;SDS011;26635;-35.248;149.138;2023-03-19T16:56:25;3.53;;;1.05;;
39930;SDS011;26635;-35.248;149.138;2023-03-19T16:58:56;1.55;;;0.80;;
39930;SDS011;26635;-35.248;149.138;2023-03-19T17:01:30;2.35;;;0.60;;
39930;SDS011;26635;-35.248;149.138;2023-03-19T17:04:01;3.75;;;0.90;;
39930;SDS011;26635;-35.248;149.138;2023-03-19T17:06:33;3.45;;;1.00;;
39930;SDS011;26635;-35.248;149.138;2023-03-19T17:09:04;1.95;;;1.15;;
39930;SDS011;26635;-35.248;149.138;2023-03-19T17:11:35;2.58;;;1.02;;
39930;SDS011;26635;-35.248;149.138;2023-03-19T17:14:12;2.42;;;0.80;;
39930;SDS011;26635;-35.248;149.138;2023-03-19T17:16:47;4.78;;;1.58;;
39930;SDS011;26635;-35.248;149.138;2023-03-19T17:19:55;5.25;;;1.00;;
39930;SDS011;26635;-35.248;149.138;2023-03-19T17:22:18;2.80;;;0.88;;
39930;SDS011;26635;-35.248;149.138;2023-03-19T17:24:50;1.95;;;0.90;;
39930;SDS011;26635;-35.248;149.138;2023-03-19T17:27:21;2.63;;;1.02;;